TJIG/SIG METAR and TAF weather

Enter ICAO airport designator
Station Type Date Time Source
TJIG METAR 2021/09/23 22:45 UTC NOAA

TJIG 232245Z VRB06KT 8SM VCSH SCT025 BKN060 BKN100 29/26 A2985 RMK VCSH S LAST


Station Type Date Time Source
TJIG Decoded METAR 2021/09/23 22:45 UTC NOAA

Station name not available
Sep 23, 2021 - 06:45 PM EDT / 2021.09.23 2245 UTC
Wind: Variable at 7 MPH (6 KT):0
Visibility: 8 mile(s):0
Sky conditions: mostly cloudy
Weather: showers in the vicinity
Temperature: 84 F (29 C)
Dew Point: 78 F (26 C)
Relative Humidity: 83%
Pressure (altimeter): 29.85 in. Hg (1010 hPa)
ob: TJIG 232245Z VRB06KT 8SM VCSH SCT025 BKN060 BKN100 29/26 A2985 RMK VCSH S LAST
cycle: 23

Station Type Date Time Source
TJIG TAF UTC NOAA

Error!

Example: see airport list